Jewell Ridge, Virginia
Current Conditions -  °F | °C
As of 12:35 AM on Thursday 27 Nov 2014 (Local Time) from KJFZ Reporting Station
Overcast Overcast  
Wind Chill: 37°   Ceiling: 7500
Heat Index: 37°   Visibility: 10mi
Dew Point: 34°   Wind: 0mph
Humidity: 87%   Direction: NA
Pressure: 29.95"   Gusts: NA
Location:  37.19°N, 81.79°W
Report Text: KJFZ 270535Z AUTO 00000KT 10SM SCT002 BKN075 OVC085 03/01 A2995 RMK AO2 T00300010
Loading
Personal Weather Stations






























Interactive Weather Map New forecast layout! Learn more

10-Day Weather Forecast

Advertisements
Track Severe Weather on mobile